Time;durP1;ratioP1;P1;durP2;ratioP2;P2;SDS_P1;SDS_P2;PMS_P1;PMS_P2;Temp;Humidity;BMP_temperature;BMP_pressure;BME280_temperature;BME280_humidity;BME280_pressure;Samples;Min_cycle;Max_cycle;Signal;HPM_P1;HPM_P2
2022/01/19 00:02:26;;;;;;;42.27;17.33;;;0.70;99.90;;;;;;5053017;28;20325;-66
2022/01/19 00:04:53;;;;;;;33.13;16.60;;;0.70;99.90;;;;;;5053704;28;20214;-65
2022/01/19 00:07:20;;;;;;;34.43;16.30;;;0.70;99.90;;;;;;5051928;28;20210;-66
2022/01/19 00:09:48;;;;;;;32.93;17.40;;;0.70;99.90;;;;;;5053288;28;20210;-66
2022/01/19 00:12:15;;;;;;;29.40;17.37;;;0.70;99.90;;;;;;5052400;28;20403;-66
2022/01/19 00:14:42;;;;;;;33.77;16.43;;;0.70;99.90;;;;;;5053197;28;20218;-66
2022/01/19 00:17:08;;;;;;;28.17;15.80;;;0.70;99.90;;;;;;5054568;28;20730;-66
2022/01/19 00:19:35;;;;;;;31.57;16.93;;;0.70;99.90;;;;;;5053968;28;20202;-66
2022/01/19 00:22:02;;;;;;;33.20;15.47;;;0.60;99.90;;;;;;5054515;28;20313;-66
2022/01/19 00:24:29;;;;;;;39.57;16.57;;;0.60;99.90;;;;;;5054099;28;20309;-66
2022/01/19 00:26:57;;;;;;;29.83;15.77;;;0.60;99.90;;;;;;5043797;28;20211;-65
2022/01/19 00:29:24;;;;;;;30.40;16.37;;;0.60;99.90;;;;;;5051269;28;20206;-66
2022/01/19 00:31:51;;;;;;;32.37;16.07;;;0.60;99.90;;;;;;5053963;28;20221;-65
2022/01/19 00:34:18;;;;;;;32.87;16.00;;;0.60;99.90;;;;;;5054440;28;20585;-66
2022/01/19 00:36:44;;;;;;;29.87;15.63;;;0.70;99.90;;;;;;5045581;28;20224;-66
2022/01/19 00:39:11;;;;;;;29.87;15.37;;;0.70;99.90;;;;;;5053925;28;20570;-66
2022/01/19 00:41:38;;;;;;;29.33;15.47;;;0.70;99.90;;;;;;5054516;28;20222;-66
2022/01/19 00:44:07;;;;;;;29.80;15.73;;;0.70;99.90;;;;;;5054026;28;20244;-66
2022/01/19 00:46:34;;;;;;;31.70;16.87;;;0.70;99.90;;;;;;5053809;28;20206;-67
2022/01/19 00:49:01;;;;;;;29.90;15.47;;;0.70;99.90;;;;;;5052792;28;20209;-66
2022/01/19 00:51:27;;;;;;;30.80;16.53;;;0.70;99.90;;;;;;5049481;28;20208;-65
2022/01/19 00:53:54;;;;;;;31.50;16.20;;;0.80;99.90;;;;;;5053652;28;20198;-66
2022/01/19 00:56:21;;;;;;;30.73;15.00;;;0.80;99.90;;;;;;5054161;28;20234;-65
2022/01/19 00:58:48;;;;;;;34.47;16.37;;;0.80;99.90;;;;;;5053215;28;20212;-66
2022/01/19 01:01:16;;;;;;;27.00;14.87;;;0.80;99.90;;;;;;5054373;28;20533;-67
2022/01/19 01:03:43;;;;;;;31.67;14.07;;;0.80;99.90;;;;;;5053780;28;20210;-66
2022/01/19 01:06:10;;;;;;;28.03;14.00;;;0.80;99.90;;;;;;5054399;28;20221;-67
2022/01/19 01:08:37;;;;;;;29.03;14.53;;;0.80;99.90;;;;;;5054456;28;20202;-66
2022/01/19 01:11:04;;;;;;;34.33;13.17;;;0.80;99.90;;;;;;5039919;28;20206;-66
2022/01/19 01:15:25;;;;;;;31.30;13.07;;;0.80;99.90;;;;;;5054178;28;20694;-66
2022/01/19 01:16:31;;;;;;;27.77;11.57;;;0.80;99.90;;;;;;5053816;28;20582;-66
2022/01/19 01:18:58;;;;;;;26.57;11.67;;;0.80;99.90;;;;;;5053200;28;20212;-66
2022/01/19 01:21:26;;;;;;;19.40;11.03;;;0.80;99.90;;;;;;5053859;28;20452;-66
2022/01/19 01:23:53;;;;;;;21.47;10.63;;;0.70;99.90;;;;;;5053976;28;20202;-67
2022/01/19 01:26:20;;;;;;;19.97;10.63;;;0.70;99.90;;;;;;5053483;28;20989;-66
2022/01/19 01:28:46;;;;;;;22.77;10.87;;;0.70;99.90;;;;;;5052182;28;20213;-68
2022/01/19 01:31:13;;;;;;;23.00;10.77;;;0.80;99.90;;;;;;5052510;28;20296;-67
2022/01/19 01:33:42;;;;;;;20.33;9.60;;;0.80;99.90;;;;;;5052714;28;20209;-66
2022/01/19 01:36:09;;;;;;;19.33;9.87;;;0.90;99.90;;;;;;5053150;28;20300;-66
2022/01/19 01:38:37;;;;;;;21.00;9.77;;;0.90;99.90;;;;;;5051739;28;20209;-67
2022/01/19 01:41:04;;;;;;;25.23;10.07;;;0.90;99.90;;;;;;5052218;28;20629;-65
2022/01/19 01:43:31;;;;;;;22.33;10.10;;;0.90;99.90;;;;;;5052314;28;20235;-65
2022/01/19 01:46:03;;;;;;;29.03;10.97;;;0.90;99.90;;;;;;5052382;28;20189;-65
2022/01/19 01:48:30;;;;;;;20.93;10.97;;;0.90;99.90;;;;;;5040579;28;20202;-66
2022/01/19 01:53:42;;;;;;;27.63;11.47;;;1.00;99.90;;;;;;5053053;28;20204;-65
2022/01/19 01:56:13;;;;;;;23.83;11.43;;;1.00;99.90;;;;;;5053098;28;20218;-66
2022/01/19 01:58:43;;;;;;;25.27;11.87;;;1.10;99.90;;;;;;5052063;28;20198;-66
2022/01/19 02:01:11;;;;;;;22.17;11.60;;;1.00;99.90;;;;;;5051979;28;20224;-67
2022/01/19 02:03:40;;;;;;;27.77;12.90;;;1.10;99.90;;;;;;5051934;28;20237;-65
2022/01/19 02:06:27;;;;;;;28.77;12.30;;;1.10;99.90;;;;;;5052888;28;20213;-65
2022/01/19 02:09:00;;;;;;;28.73;12.67;;;1.10;99.90;;;;;;5052160;28;20290;-65
2022/01/19 02:23:03;;;;;;;30.70;12.57;;;1.10;99.90;;;;;;5044737;28;20209;-66
2022/01/19 02:25:37;;;;;;;24.70;12.90;;;1.20;99.90;;;;;;5046219;28;20217;-66
2022/01/19 02:41:59;;;;;;;24.87;11.47;;;1.20;99.90;;;;;;5041580;28;20425;-66
2022/01/19 02:46:32;;;;;;;28.43;12.10;;;1.20;99.90;;;;;;5052694;28;20626;-67
2022/01/19 02:50:07;;;;;;;24.63;10.77;;;1.30;99.90;;;;;;5050689;28;20212;-66
2022/01/19 02:52:35;;;;;;;24.83;12.03;;;1.30;99.90;;;;;;5053008;28;20532;-66
2022/01/19 02:55:03;;;;;;;27.30;10.77;;;1.30;99.90;;;;;;5052927;28;20296;-68
2022/01/19 02:57:34;;;;;;;25.40;11.53;;;1.30;99.90;;;;;;5052287;28;20284;-69
2022/01/19 03:10:56;;;;;;;21.87;10.67;;;1.30;99.90;;;;;;5056662;28;20713;-68
2022/01/19 03:13:23;;;;;;;20.83;9.80;;;1.30;99.90;;;;;;5056078;28;20205;-66
2022/01/19 03:15:49;;;;;;;29.30;11.77;;;1.30;99.90;;;;;;5056455;28;20206;-67
2022/01/19 03:18:16;;;;;;;24.63;10.77;;;1.30;99.90;;;;;;5056700;28;20206;-66
2022/01/19 03:20:46;;;;;;;22.63;10.70;;;1.30;99.90;;;;;;5055425;28;20210;-67
2022/01/19 03:23:19;;;;;;;22.00;11.23;;;1.30;99.90;;;;;;5056338;28;20241;-66
2022/01/19 03:25:46;;;;;;;23.80;10.77;;;1.30;99.90;;;;;;5055619;28;20225;-66
2022/01/19 03:28:13;;;;;;;22.27;10.77;;;1.40;99.90;;;;;;5055892;28;20218;-66
2022/01/19 03:30:40;;;;;;;20.77;9.77;;;1.40;99.90;;;;;;5055765;28;20198;-66
2022/01/19 03:33:07;;;;;;;20.17;10.33;;;1.40;99.90;;;;;;5056475;28;20202;-66
2022/01/19 03:35:34;;;;;;;20.27;9.70;;;1.50;99.90;;;;;;5050270;28;20211;-66
2022/01/19 03:38:01;;;;;;;21.77;9.57;;;1.50;99.90;;;;;;5053851;28;20206;-66
2022/01/19 03:40:29;;;;;;;20.87;10.60;;;1.50;99.90;;;;;;5056215;28;20631;-66
2022/01/19 03:42:57;;;;;;;23.07;10.70;;;1.50;99.90;;;;;;5056230;28;20333;-66
2022/01/19 03:45:24;;;;;;;18.53;9.37;;;1.60;99.90;;;;;;5056036;28;20210;-66
2022/01/19 03:47:55;;;;;;;23.67;9.33;;;1.60;99.90;;;;;;5055166;28;20210;-65
2022/01/19 03:50:22;;;;;;;20.20;9.50;;;1.60;99.90;;;;;;5055379;28;20208;-66
2022/01/19 03:52:49;;;;;;;15.67;8.87;;;1.60;99.90;;;;;;5055091;28;20294;-66
2022/01/19 03:55:16;;;;;;;21.67;10.13;;;1.60;99.90;;;;;;5055342;28;20228;-65
2022/01/19 03:57:44;;;;;;;18.60;8.93;;;1.60;99.90;;;;;;5056051;28;20252;-64
2022/01/19 04:00:14;;;;;;;19.97;9.03;;;1.60;99.90;;;;;;5055211;28;20674;-65
2022/01/19 04:02:41;;;;;;;21.27;9.30;;;1.60;99.90;;;;;;5055294;28;20230;-65
2022/01/19 04:05:16;;;;;;;16.80;9.07;;;1.60;99.90;;;;;;5055704;28;20218;-65
2022/01/19 04:07:43;;;;;;;14.00;8.40;;;1.60;99.90;;;;;;5054602;28;20267;-64
2022/01/19 04:10:10;;;;;;;21.47;9.00;;;1.60;99.90;;;;;;5055202;28;20206;-65
2022/01/19 04:12:47;;;;;;;16.63;9.23;;;1.70;99.90;;;;;;5054288;28;20229;-65
2022/01/19 04:15:19;;;;;;;18.30;8.93;;;1.70;99.90;;;;;;5054547;28;20202;-66
2022/01/19 04:17:51;;;;;;;15.50;9.03;;;1.70;99.90;;;;;;5054250;28;20269;-65
2022/01/19 04:20:18;;;;;;;23.73;10.63;;;1.70;99.90;;;;;;5054434;28;20202;-66
2022/01/19 04:22:45;;;;;;;15.90;9.47;;;1.60;99.90;;;;;;5054441;28;20222;-66
2022/01/19 04:25:12;;;;;;;21.63;10.30;;;1.70;99.90;;;;;;5054093;28;20214;-65
2022/01/19 04:27:41;;;;;;;18.13;9.93;;;1.70;99.90;;;;;;5053807;28;20263;-66
2022/01/19 04:30:11;;;;;;;18.40;9.47;;;1.70;99.90;;;;;;5054406;28;20221;-64
2022/01/19 04:32:43;;;;;;;20.23;10.93;;;1.70;99.90;;;;;;5053345;28;20210;-66
2022/01/19 04:35:13;;;;;;;19.87;10.20;;;1.70;99.90;;;;;;5054293;28;20289;-65
2022/01/19 04:37:53;;;;;;;18.07;9.73;;;1.70;99.90;;;;;;5053219;28;20213;-65
2022/01/19 04:46:19;;;;;;;19.60;10.17;;;1.80;99.90;;;;;;5053894;28;20201;-64
2022/01/19 04:54:53;;;;;;;22.37;10.73;;;1.70;99.90;;;;;;5045503;28;20846;-65
2022/01/19 05:03:13;;;;;;;16.67;9.07;;;1.90;99.90;;;;;;5041915;28;20242;-65
2022/01/19 05:05:49;;;;;;;24.87;11.00;;;1.90;99.90;;;;;;5054057;28;20198;-65
2022/01/19 05:08:31;;;;;;;18.43;10.07;;;1.90;99.90;;;;;;5046449;28;20253;-65
2022/01/19 05:13:50;;;;;;;18.13;9.37;;;1.90;99.90;;;;;;5053708;28;20606;-66
2022/01/19 05:16:19;;;;;;;21.20;9.73;;;1.90;99.90;;;;;;5055084;28;20681;-65
2022/01/19 05:18:47;;;;;;;16.80;9.73;;;1.90;99.90;;;;;;5054080;28;20251;-65
2022/01/19 05:21:16;;;;;;;24.00;10.53;;;1.90;99.90;;;;;;5053699;28;20629;-65
2022/01/19 05:23:43;;;;;;;18.77;10.53;;;2.00;99.90;;;;;;5051954;28;20222;-65
2022/01/19 05:26:10;;;;;;;19.83;9.90;;;2.00;99.90;;;;;;5053162;28;20323;-66
2022/01/19 05:28:37;;;;;;;19.33;10.37;;;2.00;99.90;;;;;;5054003;28;20609;-65
2022/01/19 05:31:04;;;;;;;17.33;10.43;;;2.00;99.90;;;;;;5053397;28;20216;-64
2022/01/19 05:33:31;;;;;;;18.27;10.03;;;2.00;99.90;;;;;;5052695;28;20218;-65
2022/01/19 05:35:58;;;;;;;23.03;11.00;;;2.10;99.90;;;;;;5046742;28;20209;-64
2022/01/19 05:38:26;;;;;;;23.77;10.90;;;2.10;99.90;;;;;;5052444;28;20228;-66
2022/01/19 05:40:53;;;;;;;18.13;9.77;;;2.10;99.90;;;;;;5052715;28;20281;-66
2022/01/19 05:43:21;;;;;;;15.53;9.30;;;2.10;99.90;;;;;;5052065;28;20218;-66
2022/01/19 05:45:48;;;;;;;19.20;9.73;;;2.10;99.90;;;;;;5045484;28;20850;-65
2022/01/19 05:48:15;;;;;;;24.20;10.30;;;2.10;99.90;;;;;;5052461;28;20216;-65
2022/01/19 05:50:42;;;;;;;22.47;10.40;;;2.10;99.90;;;;;;5052816;28;20198;-66
2022/01/19 05:53:08;;;;;;;21.10;9.93;;;2.10;99.90;;;;;;5052783;28;20198;-65
2022/01/19 05:55:37;;;;;;;19.63;10.00;;;2.10;99.90;;;;;;5052393;28;20212;-65
2022/01/19 05:58:03;;;;;;;19.83;10.70;;;2.20;99.90;;;;;;5053057;28;20241;-66
2022/01/19 06:00:30;;;;;;;19.20;9.83;;;2.20;99.90;;;;;;5052066;28;20206;-65
2022/01/19 06:02:57;;;;;;;20.30;9.87;;;2.20;99.90;;;;;;5052740;28;20225;-64
2022/01/19 06:05:24;;;;;;;17.80;9.67;;;2.20;99.90;;;;;;5052184;28;20655;-65
2022/01/19 06:08:08;;;;;;;17.37;9.33;;;2.20;99.90;;;;;;5051606;28;20689;-65
2022/01/19 06:10:45;;;;;;;17.67;8.53;;;2.20;99.90;;;;;;5052541;28;20289;-66
2022/01/19 06:13:17;;;;;;;16.97;8.23;;;2.20;99.90;;;;;;5052010;28;20233;-65
2022/01/19 06:15:45;;;;;;;17.13;8.20;;;2.30;99.90;;;;;;5052284;28;20276;-66
2022/01/19 06:18:13;;;;;;;18.40;8.90;;;2.30;99.90;;;;;;5052730;28;20220;-65
2022/01/19 06:20:41;;;;;;;15.97;8.40;;;2.30;99.90;;;;;;5051109;28;20293;-64
2022/01/19 06:23:08;;;;;;;14.90;8.70;;;2.30;99.90;;;;;;5052067;28;20236;-64
2022/01/19 06:25:36;;;;;;;12.73;7.77;;;2.40;99.90;;;;;;5051896;28;20213;-66
2022/01/19 06:28:04;;;;;;;19.47;8.70;;;2.40;99.90;;;;;;5051754;28;20277;-65
2022/01/19 06:30:31;;;;;;;15.47;8.30;;;2.40;99.90;;;;;;5047038;28;20208;-65
2022/01/19 06:32:58;;;;;;;18.20;9.00;;;2.40;99.90;;;;;;5051902;28;20210;-66
2022/01/19 06:35:25;;;;;;;18.47;8.83;;;2.50;99.90;;;;;;5053143;28;20205;-65
2022/01/19 06:37:52;;;;;;;15.43;9.03;;;2.40;99.90;;;;;;5052774;28;20209;-65
2022/01/19 06:40:20;;;;;;;14.67;8.70;;;2.40;99.90;;;;;;5054302;28;20288;-64
2022/01/19 06:42:48;;;;;;;17.20;8.53;;;2.40;99.90;;;;;;5055295;28;20216;-65
2022/01/19 06:45:18;;;;;;;13.07;8.60;;;2.40;99.90;;;;;;5055304;28;20284;-66
2022/01/19 06:47:45;;;;;;;21.07;8.70;;;2.40;99.90;;;;;;5055512;28;20205;-65
2022/01/19 06:50:15;;;;;;;16.47;9.23;;;2.40;99.90;;;;;;5056481;28;20213;-65
2022/01/19 06:52:42;;;;;;;15.53;9.17;;;2.40;99.90;;;;;;5055404;28;20217;-65
2022/01/19 06:55:09;;;;;;;16.30;8.90;;;2.40;99.90;;;;;;5055535;28;20202;-66
2022/01/19 06:57:36;;;;;;;16.07;8.90;;;2.40;99.90;;;;;;5055920;28;20230;-65
2022/01/19 07:00:05;;;;;;;17.30;9.57;;;2.40;99.90;;;;;;5055600;28;20570;-65
2022/01/19 07:02:32;;;;;;;14.60;8.57;;;2.50;99.90;;;;;;5054111;28;20589;-65
2022/01/19 07:05:00;;;;;;;12.47;8.20;;;2.40;99.90;;;;;;5055387;28;20218;-65
2022/01/19 07:07:27;;;;;;;14.03;8.60;;;2.50;99.90;;;;;;5056245;28;20256;-65
2022/01/19 07:09:54;;;;;;;19.03;9.63;;;2.50;99.90;;;;;;5064625;28;20292;-67
2022/01/19 07:12:21;;;;;;;16.13;9.10;;;2.50;99.90;;;;;;5054014;28;20812;-65
2022/01/19 07:14:48;;;;;;;16.37;9.40;;;2.50;99.90;;;;;;5053980;28;20206;-66
2022/01/19 07:17:16;;;;;;;21.10;9.70;;;2.60;99.90;;;;;;5054528;28;20223;-65
2022/01/19 07:19:43;;;;;;;15.13;8.77;;;2.60;99.90;;;;;;5053324;28;20202;-66
2022/01/19 07:22:10;;;;;;;18.67;9.07;;;2.60;99.90;;;;;;5055542;28;20289;-66
2022/01/19 07:24:37;;;;;;;14.60;8.60;;;2.60;99.90;;;;;;5055251;28;20233;-66
2022/01/19 07:27:05;;;;;;;18.47;9.30;;;2.60;99.90;;;;;;5054286;28;20213;-65
2022/01/19 07:29:32;;;;;;;16.87;9.07;;;2.70;99.90;;;;;;5054974;28;20556;-65
2022/01/19 07:31:59;;;;;;;15.00;8.60;;;2.70;99.90;;;;;;5053621;28;20213;-66
2022/01/19 07:34:29;;;;;;;19.50;8.63;;;2.70;99.90;;;;;;5054013;28;20206;-66
2022/01/19 07:36:57;;;;;;;16.87;8.17;;;2.70;99.90;;;;;;5053691;28;20210;-70
2022/01/19 07:39:24;;;;;;;16.33;8.73;;;2.70;99.90;;;;;;5049402;28;20218;-66
2022/01/19 07:41:53;;;;;;;14.63;8.97;;;2.70;99.90;;;;;;5053992;28;20210;-65
2022/01/19 07:44:20;;;;;;;14.33;9.07;;;2.70;99.90;;;;;;5054174;28;20232;-65
2022/01/19 07:46:48;;;;;;;17.13;9.70;;;2.70;99.90;;;;;;5052934;28;20234;-65
2022/01/19 07:49:15;;;;;;;17.10;10.03;;;2.80;99.90;;;;;;5053166;28;20214;-65
2022/01/19 07:51:43;;;;;;;18.67;9.30;;;2.80;99.90;;;;;;5052400;28;20210;-64
2022/01/19 07:54:10;;;;;;;17.20;9.40;;;2.80;99.90;;;;;;5054044;28;20198;-67
2022/01/19 07:56:37;;;;;;;17.00;9.40;;;2.80;99.90;;;;;;5052449;28;20561;-64
2022/01/19 07:59:04;;;;;;;15.60;9.17;;;2.80;99.90;;;;;;5052630;28;20202;-65
2022/01/19 08:01:31;;;;;;;18.80;8.83;;;2.80;99.90;;;;;;5052843;28;20301;-65
2022/01/19 08:03:59;;;;;;;17.97;9.70;;;2.90;99.90;;;;;;5054253;28;20218;-65
2022/01/19 08:06:26;;;;;;;16.67;9.07;;;2.90;99.90;;;;;;5053856;28;20206;-64
2022/01/19 08:08:54;;;;;;;19.10;9.47;;;2.90;99.90;;;;;;5054029;28;20296;-64
2022/01/19 08:11:21;;;;;;;17.80;10.20;;;2.90;99.90;;;;;;5052261;28;20669;-65
2022/01/19 08:13:48;;;;;;;15.77;9.63;;;2.90;99.90;;;;;;5048716;28;20203;-67
2022/01/19 08:16:16;;;;;;;20.93;9.70;;;2.90;99.90;;;;;;5054998;28;20723;-64
2022/01/19 08:18:43;;;;;;;19.27;9.73;;;3.00;99.90;;;;;;5054026;28;20217;-71
2022/01/19 08:21:10;;;;;;;19.63;9.43;;;3.00;99.90;;;;;;5054661;28;20202;-71
2022/01/19 08:23:37;;;;;;;17.73;10.03;;;3.00;99.90;;;;;;5051243;28;20587;-70
2022/01/19 08:26:05;;;;;;;18.70;9.87;;;3.00;99.90;;;;;;5052107;28;20664;-71
2022/01/19 08:28:32;;;;;;;25.17;9.97;;;3.00;99.90;;;;;;5053349;28;20265;-69
2022/01/19 08:30:59;;;;;;;20.10;10.50;;;3.00;99.90;;;;;;5052643;28;20273;-68
2022/01/19 08:33:26;;;;;;;20.13;9.57;;;3.00;99.90;;;;;;5054450;28;20212;-70
2022/01/19 08:35:52;;;;;;;16.80;9.83;;;3.00;99.90;;;;;;5053679;28;20580;-68
2022/01/19 08:38:19;;;;;;;17.80;9.87;;;3.00;99.90;;;;;;5053269;28;20316;-69
2022/01/19 08:40:46;;;;;;;20.73;10.77;;;3.00;99.90;;;;;;5053103;28;20702;-69
2022/01/19 08:43:15;;;;;;;20.47;10.53;;;3.00;99.90;;;;;;5052265;28;20263;-70
2022/01/19 08:45:42;;;;;;;21.77;10.73;;;3.00;99.90;;;;;;5052378;28;20287;-67
2022/01/19 08:48:09;;;;;;;15.47;10.00;;;3.00;99.90;;;;;;5050058;28;20604;-71
2022/01/19 08:50:37;;;;;;;17.80;10.07;;;3.00;99.90;;;;;;5049712;28;20675;-72
2022/01/19 08:53:04;;;;;;;17.50;10.07;;;3.10;99.90;;;;;;5052906;28;20206;-72
2022/01/19 08:55:31;;;;;;;16.87;10.33;;;3.10;99.90;;;;;;5053955;28;20202;-71
2022/01/19 08:57:58;;;;;;;22.33;11.13;;;3.10;99.90;;;;;;5051828;28;20312;-72
2022/01/19 09:00:27;;;;;;;20.47;11.07;;;3.10;99.90;;;;;;5047965;28;20688;-72
2022/01/19 09:02:54;;;;;;;18.70;10.63;;;3.10;99.90;;;;;;5051750;28;20210;-73
2022/01/19 09:05:20;;;;;;;18.27;10.43;;;3.10;99.90;;;;;;5050939;28;20634;-72
2022/01/19 09:07:48;;;;;;;21.33;10.70;;;3.10;99.90;;;;;;5053638;28;20289;-74
2022/01/19 09:10:15;;;;;;;20.80;11.37;;;3.00;99.90;;;;;;5055928;28;20283;-72
2022/01/19 09:12:44;;;;;;;18.60;10.80;;;3.10;99.90;;;;;;5051184;28;20248;-71
2022/01/19 09:15:12;;;;;;;17.80;10.53;;;3.10;99.90;;;;;;5051540;28;20683;-72
2022/01/19 09:17:44;;;;;;;16.80;9.63;;;3.10;99.90;;;;;;5051195;28;20217;-72
2022/01/19 09:20:12;;;;;;;18.63;10.10;;;3.10;99.90;;;;;;5043232;28;20207;-67
2022/01/19 09:22:40;;;;;;;20.30;10.43;;;3.10;99.90;;;;;;5051100;28;20224;-71
2022/01/19 09:25:09;;;;;;;19.33;11.03;;;3.20;99.90;;;;;;5052709;28;20228;-69
2022/01/19 09:27:37;;;;;;;19.00;10.83;;;3.20;99.90;;;;;;5052271;28;20249;-73
2022/01/19 09:30:07;;;;;;;17.60;10.40;;;3.20;99.90;;;;;;5052892;28;20263;-73
2022/01/19 09:32:33;;;;;;;18.50;11.07;;;3.30;99.90;;;;;;5046996;28;20228;-72
2022/01/19 09:35:07;;;;;;;22.70;10.97;;;3.30;99.90;;;;;;5047307;28;20206;-72
2022/01/19 09:37:34;;;;;;;23.07;11.60;;;3.30;99.90;;;;;;5047676;28;20289;-72
2022/01/19 09:40:02;;;;;;;22.90;11.97;;;3.30;99.90;;;;;;5051924;28;20217;-71
2022/01/19 09:42:29;;;;;;;17.57;11.07;;;3.30;99.90;;;;;;5050936;28;20297;-72
2022/01/19 09:44:56;;;;;;;18.13;9.90;;;3.20;99.90;;;;;;5052064;28;20323;-71
2022/01/19 09:47:23;;;;;;;18.37;11.10;;;3.30;99.90;;;;;;5050967;28;20209;-72
2022/01/19 09:49:50;;;;;;;22.40;11.53;;;3.30;99.90;;;;;;5050364;28;20241;-73
2022/01/19 09:52:18;;;;;;;20.10;11.23;;;3.30;99.90;;;;;;5052087;28;20222;-70
2022/01/19 09:54:45;;;;;;;21.90;11.50;;;3.30;99.90;;;;;;5053301;28;20794;-72
2022/01/19 09:57:12;;;;;;;20.43;11.17;;;3.30;99.90;;;;;;5051702;28;20226;-69
2022/01/19 09:59:39;;;;;;;18.10;10.87;;;3.30;99.90;;;;;;5050955;28;20206;-68
2022/01/19 10:02:09;;;;;;;26.53;12.73;;;3.30;99.90;;;;;;5049822;28;20212;-68
2022/01/19 10:04:38;;;;;;;22.40;11.93;;;3.40;99.90;;;;;;5049163;28;20230;-68
2022/01/19 10:07:14;;;;;;;18.90;11.00;;;3.30;99.90;;;;;;5050027;28;20649;-69
2022/01/19 10:09:50;;;;;;;25.02;15.75;;;3.40;99.90;;;;;;5049849;28;20535;-68
2022/01/19 10:17:57;;;;;;;19.27;11.87;;;3.50;99.90;;;;;;5051333;28;20557;-68
2022/01/19 10:20:25;;;;;;;19.13;11.13;;;3.50;99.90;;;;;;5050790;28;20202;-68
2022/01/19 10:22:52;;;;;;;24.40;15.68;;;3.50;99.90;;;;;;5047413;28;21225;-69
2022/01/19 10:25:20;;;;;;;19.63;12.47;;;3.50;99.90;;;;;;5051358;28;20228;-69
2022/01/19 10:27:47;;;;;;;21.10;11.80;;;3.50;99.90;;;;;;5048727;28;20687;-70
2022/01/19 10:30:23;;;;;;;20.17;11.67;;;3.50;99.90;;;;;;5048062;28;20296;-68
2022/01/19 10:32:55;;;;;;;20.00;10.87;;;3.40;99.90;;;;;;5050990;28;20225;-69
2022/01/19 10:35:25;;;;;;;19.90;11.57;;;3.40;99.90;;;;;;5047078;28;20625;-69
2022/01/19 10:38:09;;;;;;;20.60;11.20;;;3.40;99.90;;;;;;5050287;28;20615;-69
2022/01/19 10:40:39;;;;;;;17.50;10.97;;;3.40;99.90;;;;;;5041652;28;20568;-69
2022/01/19 10:43:26;;;;;;;16.87;11.73;;;3.40;99.90;;;;;;5050405;28;20214;-68
2022/01/19 10:45:53;;;;;;;26.13;11.77;;;3.40;99.90;;;;;;5049012;28;20680;-68
2022/01/19 10:48:31;;;;;;;20.30;12.40;;;3.40;99.90;;;;;;5047817;28;20276;-69
2022/01/19 10:51:07;;;;;;;22.50;13.13;;;3.40;99.90;;;;;;5050117;28;20206;-68
2022/01/19 10:53:35;;;;;;;19.10;12.43;;;3.40;99.90;;;;;;5049528;28;20209;-68
2022/01/19 10:56:05;;;;;;;20.27;12.13;;;3.40;99.90;;;;;;5050106;28;20208;-68
2022/01/19 10:58:56;;;;;;;24.00;13.27;;;3.40;99.90;;;;;;5049652;28;20722;-68
2022/01/19 11:01:37;;;;;;;22.87;12.57;;;3.40;99.90;;;;;;5048764;28;20293;-69
2022/01/19 11:04:22;;;;;;;18.50;12.30;;;3.40;99.90;;;;;;5050329;28;20198;-69
2022/01/19 11:06:53;;;;;;;21.63;12.93;;;3.40;99.90;;;;;;5045760;28;20677;-68
2022/01/19 11:09:24;;;;;;;22.50;13.13;;;3.50;99.90;;;;;;5044793;28;20306;-68
2022/01/19 11:11:53;;;;;;;18.63;12.43;;;3.40;99.90;;;;;;5038662;28;20296;-68
2022/01/19 11:14:20;;;;;;;23.53;13.70;;;3.50;99.90;;;;;;5048653;28;20205;-72
2022/01/19 11:16:48;;;;;;;23.40;12.40;;;3.50;99.90;;;;;;5051551;28;20210;-67
2022/01/19 11:19:15;;;;;;;19.67;12.07;;;3.40;99.90;;;;;;5050885;28;20275;-76
2022/01/19 11:21:52;;;;;;;19.60;12.43;;;3.40;99.90;;;;;;5050155;28;20233;-74
2022/01/19 11:24:31;;;;;;;20.33;11.40;;;3.40;99.90;;;;;;5054582;28;20198;-70
2022/01/19 11:27:00;;;;;;;18.50;12.07;;;3.40;99.90;;;;;;5052886;28;20748;-75
2022/01/19 11:29:27;;;;;;;23.73;12.33;;;3.40;99.90;;;;;;5054847;28;20285;-74
2022/01/19 11:31:55;;;;;;;18.00;11.63;;;3.40;99.90;;;;;;5042024;28;20203;-73
2022/01/19 11:34:40;;;;;;;18.20;11.83;;;3.40;99.90;;;;;;5055195;28;20210;-73
2022/01/19 11:37:07;;;;;;;21.07;11.57;;;3.40;99.90;;;;;;5054624;28;20221;-71
2022/01/19 11:39:34;;;;;;;17.87;10.80;;;3.40;99.90;;;;;;5051542;28;20270;-71
2022/01/19 11:42:04;;;;;;;20.17;11.07;;;3.40;99.90;;;;;;5055776;28;20206;-72
2022/01/19 11:44:41;;;;;;;18.63;11.20;;;3.30;99.90;;;;;;5053581;28;20624;-71
2022/01/19 11:47:25;;;;;;;19.80;10.70;;;3.40;99.90;;;;;;5053250;28;20212;-71
2022/01/19 11:49:56;;;;;;;17.07;10.90;;;3.40;99.90;;;;;;5054302;28;20377;-70
2022/01/19 11:52:27;;;;;;;17.63;11.40;;;3.40;99.90;;;;;;5053140;28;20508;-68
2022/01/19 11:55:14;;;;;;;19.57;11.63;;;3.40;99.90;;;;;;5054135;28;20206;-69
2022/01/19 11:57:44;;;;;;;18.87;11.77;;;3.40;99.90;;;;;;5046627;28;20268;-68
2022/01/19 12:00:21;;;;;;;20.83;12.13;;;3.40;99.90;;;;;;5051098;28;20217;-70
2022/01/19 12:02:50;;;;;;;19.80;12.53;;;3.40;99.90;;;;;;5052177;28;20201;-69
2022/01/19 12:05:27;;;;;;;21.37;11.73;;;3.40;99.90;;;;;;5053856;28;20636;-69
2022/01/19 12:07:57;;;;;;;19.20;12.80;;;3.40;99.90;;;;;;5051876;28;20252;-69
2022/01/19 12:10:43;;;;;;;19.77;12.53;;;3.40;99.90;;;;;;5051160;28;20197;-69
2022/01/19 12:13:44;;;;;;;20.63;12.93;;;3.40;99.90;;;;;;5047779;28;20249;-69
2022/01/19 12:16:27;;;;;;;23.60;12.77;;;3.40;99.90;;;;;;5050911;28;20213;-68
2022/01/19 12:18:55;;;;;;;21.10;14.10;;;3.30;99.90;;;;;;5046562;28;20213;-69
2022/01/19 12:21:44;;;;;;;21.10;13.50;;;3.30;99.90;;;;;;5042837;28;20218;-68
2022/01/19 12:24:26;;;;;;;21.30;13.80;;;3.30;99.90;;;;;;5051268;28;20734;-69
2022/01/19 12:26:59;;;;;;;24.13;14.80;;;3.30;99.90;;;;;;5051790;28;20224;-69
2022/01/19 12:29:46;;;;;;;22.43;14.50;;;3.20;99.90;;;;;;5051105;28;20201;-69
2022/01/19 12:32:33;;;;;;;26.57;14.93;;;3.20;99.90;;;;;;5052323;28;20214;-67
2022/01/19 12:35:11;;;;;;;24.37;14.80;;;3.20;99.90;;;;;;5043751;28;20214;-65
2022/01/19 12:37:40;;;;;;;25.97;14.43;;;3.20;99.90;;;;;;5051794;28;20213;-66
2022/01/19 12:40:33;;;;;;;23.93;15.60;;;3.30;99.90;;;;;;5045667;28;20203;-66
2022/01/19 12:43:02;;;;;;;24.40;15.30;;;3.30;99.90;;;;;;5046518;28;20198;-65
2022/01/19 12:45:33;;;;;;;27.93;16.53;;;3.30;99.90;;;;;;5043033;28;20682;-67
2022/01/19 12:48:01;;;;;;;29.37;16.50;;;3.30;99.90;;;;;;5041298;28;20206;-66
2022/01/19 12:50:45;;;;;;;31.13;17.20;;;3.30;99.90;;;;;;5042208;28;20265;-67
2022/01/19 12:53:24;;;;;;;27.07;16.93;;;3.30;99.90;;;;;;5040946;28;20205;-66
2022/01/19 12:55:54;;;;;;;27.70;16.67;;;3.40;99.90;;;;;;5044765;28;20205;-66
2022/01/19 12:58:28;;;;;;;28.73;17.17;;;3.30;99.90;;;;;;5038649;28;20309;-67
2022/01/19 13:01:00;;;;;;;29.40;15.80;;;3.30;99.90;;;;;;5040225;28;20625;-66
2022/01/19 13:03:30;;;;;;;29.33;16.90;;;3.30;99.90;;;;;;5044463;28;20237;-66
2022/01/19 13:06:02;;;;;;;24.93;15.93;;;3.30;99.90;;;;;;5048163;28;20656;-66
2022/01/19 13:08:57;;;;;;;26.00;16.20;;;3.20;99.90;;;;;;5047843;28;20221;-66
2022/01/19 13:11:33;;;;;;;29.27;16.13;;;3.20;99.90;;;;;;5044200;28;20239;-67
2022/01/19 13:14:03;;;;;;;24.97;16.10;;;3.20;99.90;;;;;;5050997;28;20201;-67
2022/01/19 13:16:44;;;;;;;25.33;16.50;;;3.20;99.90;;;;;;5041244;28;20210;-67
2022/01/19 13:19:17;;;;;;;26.57;16.73;;;3.20;99.90;;;;;;5041207;28;20636;-67
2022/01/19 13:21:46;;;;;;;29.00;17.27;;;3.20;99.90;;;;;;5048741;28;20234;-66
2022/01/19 13:24:19;;;;;;;25.10;16.00;;;3.20;99.90;;;;;;5048884;28;20218;-66
2022/01/19 13:26:52;;;;;;;26.63;16.00;;;3.20;99.90;;;;;;5050282;28;20247;-68
2022/01/19 13:29:26;;;;;;;25.57;16.73;;;3.20;99.90;;;;;;5047597;28;20210;-67
2022/01/19 13:32:04;;;;;;;30.93;18.77;;;3.20;99.90;;;;;;5042701;28;20814;-67
2022/01/19 13:34:33;;;;;;;25.87;16.10;;;3.40;99.90;;;;;;5047470;28;20276;-66
2022/01/19 13:37:02;;;;;;;26.77;16.20;;;3.20;99.90;;;;;;5049189;28;20212;-67
2022/01/19 13:39:33;;;;;;;28.73;16.23;;;3.20;99.90;;;;;;5050918;28;20293;-67
2022/01/19 13:42:01;;;;;;;25.27;16.00;;;3.20;99.90;;;;;;5042037;28;20237;-70
2022/01/19 13:44:33;;;;;;;29.60;16.77;;;3.20;99.90;;;;;;5051789;28;20782;-66
2022/01/19 13:47:10;;;;;;;27.83;16.97;;;3.20;99.90;;;;;;5051814;28;20210;-68
2022/01/19 13:49:37;;;;;;;30.10;16.00;;;3.20;99.90;;;;;;5046936;28;20217;-67
2022/01/19 13:52:09;;;;;;;26.83;16.43;;;3.20;99.90;;;;;;5051996;28;20205;-68
2022/01/19 13:54:38;;;;;;;26.53;16.67;;;3.20;99.90;;;;;;5051598;28;20572;-69
2022/01/19 13:57:06;;;;;;;25.23;17.37;;;3.20;99.90;;;;;;5042359;28;20226;-70
2022/01/19 13:59:33;;;;;;;28.03;17.53;;;3.30;99.90;;;;;;5051743;28;20212;-68
2022/01/19 14:02:01;;;;;;;28.20;17.00;;;3.20;99.90;;;;;;5050934;28;20210;-71
2022/01/19 14:04:33;;;;;;;31.10;16.67;;;3.20;99.90;;;;;;5041059;28;20861;-72